sensor_id;sensor_type;location;lat;lon;timestamp;temperature;humidity
19908;DHT22;10116;53.112;7.356;2023-02-19T00:01:26;24.50;75.70
19908;DHT22;10116;53.112;7.356;2023-02-19T00:03:54;24.50;76.00
19908;DHT22;10116;53.112;7.356;2023-02-19T00:06:22;24.60;77.00
19908;DHT22;10116;53.112;7.356;2023-02-19T00:08:48;24.60;77.00
19908;DHT22;10116;53.112;7.356;2023-02-19T00:11:16;24.70;77.60
19908;DHT22;10116;53.112;7.356;2023-02-19T00:13:44;24.70;80.00
19908;DHT22;10116;53.112;7.356;2023-02-19T00:16:15;24.70;78.00
19908;DHT22;10116;53.112;7.356;2023-02-19T00:18:42;24.70;79.00
19908;DHT22;10116;53.112;7.356;2023-02-19T00:21:08;24.70;77.60
19908;DHT22;10116;53.112;7.356;2023-02-19T00:23:34;24.70;78.50
19908;DHT22;10116;53.112;7.356;2023-02-19T00:26:11;24.70;77.70
19908;DHT22;10116;53.112;7.356;2023-02-19T00:28:37;24.70;77.60
19908;DHT22;10116;53.112;7.356;2023-02-19T00:31:17;24.70;78.00
19908;DHT22;10116;53.112;7.356;2023-02-19T00:33:44;24.80;78.00
19908;DHT22;10116;53.112;7.356;2023-02-19T00:36:10;24.70;77.40
19908;DHT22;10116;53.112;7.356;2023-02-19T00:38:37;24.70;76.90
19908;DHT22;10116;53.112;7.356;2023-02-19T00:41:04;24.70;77.00
19908;DHT22;10116;53.112;7.356;2023-02-19T00:43:50;24.70;77.60
19908;DHT22;10116;53.112;7.356;2023-02-19T00:46:19;24.70;76.60
19908;DHT22;10116;53.112;7.356;2023-02-19T00:48:45;24.70;76.90
19908;DHT22;10116;53.112;7.356;2023-02-19T00:51:11;24.70;76.40
19908;DHT22;10116;53.112;7.356;2023-02-19T00:53:37;24.70;76.10
19908;DHT22;10116;53.112;7.356;2023-02-19T00:56:03;24.60;75.80
19908;DHT22;10116;53.112;7.356;2023-02-19T00:58:29;24.60;75.50
19908;DHT22;10116;53.112;7.356;2023-02-19T01:00:55;24.60;76.10
19908;DHT22;10116;53.112;7.356;2023-02-19T01:03:20;24.70;77.10
19908;DHT22;10116;53.112;7.356;2023-02-19T01:05:50;24.70;78.30
19908;DHT22;10116;53.112;7.356;2023-02-19T01:08:16;24.80;78.60
19908;DHT22;10116;53.112;7.356;2023-02-19T01:10:42;24.80;78.70
19908;DHT22;10116;53.112;7.356;2023-02-19T01:13:08;24.80;78.10
19908;DHT22;10116;53.112;7.356;2023-02-19T01:15:34;24.90;78.50
19908;DHT22;10116;53.112;7.356;2023-02-19T01:17:59;24.90;79.40
19908;DHT22;10116;53.112;7.356;2023-02-19T01:20:25;24.90;78.90
19908;DHT22;10116;53.112;7.356;2023-02-19T01:22:52;24.90;78.90
19908;DHT22;10116;53.112;7.356;2023-02-19T01:25:18;24.90;77.90
19908;DHT22;10116;53.112;7.356;2023-02-19T01:27:44;24.90;77.60
19908;DHT22;10116;53.112;7.356;2023-02-19T01:30:10;24.90;77.90
19908;DHT22;10116;53.112;7.356;2023-02-19T01:32:35;24.80;77.00
19908;DHT22;10116;53.112;7.356;2023-02-19T01:35:01;24.80;77.10
19908;DHT22;10116;53.112;7.356;2023-02-19T01:37:26;24.80;76.90
19908;DHT22;10116;53.112;7.356;2023-02-19T01:39:52;24.80;76.90
19908;DHT22;10116;53.112;7.356;2023-02-19T01:42:18;24.80;76.80
19908;DHT22;10116;53.112;7.356;2023-02-19T01:47:10;24.80;77.80
19908;DHT22;10116;53.112;7.356;2023-02-19T01:49:40;24.80;76.10
19908;DHT22;10116;53.112;7.356;2023-02-19T01:52:28;24.80;75.10
19908;DHT22;10116;53.112;7.356;2023-02-19T01:54:56;24.70;74.80
19908;DHT22;10116;53.112;7.356;2023-02-19T01:57:25;24.70;74.70
19908;DHT22;10116;53.112;7.356;2023-02-19T01:59:55;24.70;74.50
19908;DHT22;10116;53.112;7.356;2023-02-19T02:02:22;24.80;75.00
19908;DHT22;10116;53.112;7.356;2023-02-19T02:04:49;24.80;75.90
19908;DHT22;10116;53.112;7.356;2023-02-19T02:07:15;24.80;76.30
19908;DHT22;10116;53.112;7.356;2023-02-19T02:09:59;24.90;76.60
19908;DHT22;10116;53.112;7.356;2023-02-19T02:12:43;24.90;76.20
19908;DHT22;10116;53.112;7.356;2023-02-19T02:15:09;24.90;76.70
19908;DHT22;10116;53.112;7.356;2023-02-19T02:22:48;24.90;76.40
19908;DHT22;10116;53.112;7.356;2023-02-19T02:33:01;24.80;74.70
19908;DHT22;10116;53.112;7.356;2023-02-19T02:35:34;24.80;75.50
19908;DHT22;10116;53.112;7.356;2023-02-19T02:38:05;24.80;90.00
19908;DHT22;10116;53.112;7.356;2023-02-19T02:40:32;24.80;73.50
19908;DHT22;10116;53.112;7.356;2023-02-19T02:42:59;24.80;73.60
19908;DHT22;10116;53.112;7.356;2023-02-19T02:45:30;24.80;72.30
19908;DHT22;10116;53.112;7.356;2023-02-19T02:50:58;24.70;72.20
19908;DHT22;10116;53.112;7.356;2023-02-19T02:53:37;24.70;71.90
19908;DHT22;10116;53.112;7.356;2023-02-19T02:56:23;24.70;71.10
19908;DHT22;10116;53.112;7.356;2023-02-19T02:58:51;24.70;70.60
19908;DHT22;10116;53.112;7.356;2023-02-19T03:01:28;24.70;71.30
19908;DHT22;10116;53.112;7.356;2023-02-19T03:04:21;24.80;71.40
19908;DHT22;10116;53.112;7.356;2023-02-19T03:06:48;24.80;72.90
19908;DHT22;10116;53.112;7.356;2023-02-19T03:09:24;24.80;73.40
19908;DHT22;10116;53.112;7.356;2023-02-19T03:11:57;24.80;73.80
19908;DHT22;10116;53.112;7.356;2023-02-19T03:14:47;24.90;73.50
19908;DHT22;10116;53.112;7.356;2023-02-19T03:17:50;24.90;72.80
19908;DHT22;10116;53.112;7.356;2023-02-19T03:20:39;24.80;72.40
19908;DHT22;10116;53.112;7.356;2023-02-19T03:23:07;24.90;71.50
19908;DHT22;10116;53.112;7.356;2023-02-19T03:25:35;24.90;72.10
19908;DHT22;10116;53.112;7.356;2023-02-19T03:28:22;24.80;70.70
19908;DHT22;10116;53.112;7.356;2023-02-19T03:31:15;24.80;71.70
19908;DHT22;10116;53.112;7.356;2023-02-19T03:33:45;24.80;71.70
19908;DHT22;10116;53.112;7.356;2023-02-19T03:36:13;24.80;71.10
19908;DHT22;10116;53.112;7.356;2023-02-19T03:42:20;24.80;71.20
19908;DHT22;10116;53.112;7.356;2023-02-19T03:47:23;24.80;69.00
19908;DHT22;10116;53.112;7.356;2023-02-19T03:55:39;24.70;68.70
19908;DHT22;10116;53.112;7.356;2023-02-19T03:58:27;24.70;68.00
19908;DHT22;10116;53.112;7.356;2023-02-19T04:00:57;24.70;68.20
19908;DHT22;10116;53.112;7.356;2023-02-19T04:03:32;24.80;69.40
19908;DHT22;10116;53.112;7.356;2023-02-19T04:06:04;24.80;69.40
19908;DHT22;10116;53.112;7.356;2023-02-19T04:08:34;24.80;69.60
19908;DHT22;10116;53.112;7.356;2023-02-19T04:11:00;24.80;70.20
19908;DHT22;10116;53.112;7.356;2023-02-19T04:13:35;24.90;70.40
19908;DHT22;10116;53.112;7.356;2023-02-19T04:16:07;24.90;70.10
19908;DHT22;10116;53.112;7.356;2023-02-19T04:18:37;24.90;71.40
19908;DHT22;10116;53.112;7.356;2023-02-19T04:21:05;24.90;70.20
19908;DHT22;10116;53.112;7.356;2023-02-19T04:23:39;24.80;69.00
19908;DHT22;10116;53.112;7.356;2023-02-19T04:26:05;24.80;69.40
19908;DHT22;10116;53.112;7.356;2023-02-19T04:28:32;24.90;69.50
19908;DHT22;10116;53.112;7.356;2023-02-19T04:30:58;24.80;69.20
19908;DHT22;10116;53.112;7.356;2023-02-19T04:33:24;24.90;68.40
19908;DHT22;10116;53.112;7.356;2023-02-19T04:35:49;24.80;68.60
19908;DHT22;10116;53.112;7.356;2023-02-19T04:38:15;24.80;67.80
19908;DHT22;10116;53.112;7.356;2023-02-19T04:40:40;24.80;67.90
19908;DHT22;10116;53.112;7.356;2023-02-19T04:43:06;24.80;68.00
19908;DHT22;10116;53.112;7.356;2023-02-19T04:45:32;24.80;69.00
19908;DHT22;10116;53.112;7.356;2023-02-19T04:47:57;24.80;68.70
19908;DHT22;10116;53.112;7.356;2023-02-19T04:50:23;24.80;67.10
19908;DHT22;10116;53.112;7.356;2023-02-19T04:52:49;24.80;67.00
19908;DHT22;10116;53.112;7.356;2023-02-19T04:55:15;24.80;67.20
19908;DHT22;10116;53.112;7.356;2023-02-19T04:57:40;24.80;82.80
19908;DHT22;10116;53.112;7.356;2023-02-19T05:00:07;24.80;66.70
19908;DHT22;10116;53.112;7.356;2023-02-19T05:02:33;24.80;66.60
19908;DHT22;10116;53.112;7.356;2023-02-19T05:04:58;24.80;68.60
19908;DHT22;10116;53.112;7.356;2023-02-19T05:07:24;24.90;67.70
19908;DHT22;10116;53.112;7.356;2023-02-19T05:09:49;24.90;68.80
19908;DHT22;10116;53.112;7.356;2023-02-19T05:12:15;25.00;70.20
19908;DHT22;10116;53.112;7.356;2023-02-19T05:14:40;24.90;68.20
19908;DHT22;10116;53.112;7.356;2023-02-19T05:17:06;25.00;68.50
19908;DHT22;10116;53.112;7.356;2023-02-19T05:19:31;25.00;69.20
19908;DHT22;10116;53.112;7.356;2023-02-19T05:21:57;25.00;68.60
19908;DHT22;10116;53.112;7.356;2023-02-19T05:24:22;25.00;68.00
19908;DHT22;10116;53.112;7.356;2023-02-19T05:26:49;25.00;68.30
19908;DHT22;10116;53.112;7.356;2023-02-19T05:29:14;25.00;68.90
19908;DHT22;10116;53.112;7.356;2023-02-19T05:31:40;25.00;68.50
19908;DHT22;10116;53.112;7.356;2023-02-19T05:34:06;25.00;68.60
19908;DHT22;10116;53.112;7.356;2023-02-19T05:36:32;24.90;67.90
19908;DHT22;10116;53.112;7.356;2023-02-19T05:38:58;25.00;67.30
19908;DHT22;10116;53.112;7.356;2023-02-19T05:41:26;24.90;67.10
19908;DHT22;10116;53.112;7.356;2023-02-19T05:43:53;25.00;66.80
19908;DHT22;10116;53.112;7.356;2023-02-19T05:46:21;24.90;82.40
19908;DHT22;10116;53.112;7.356;2023-02-19T05:48:48;24.90;65.20
19908;DHT22;10116;53.112;7.356;2023-02-19T05:51:17;24.90;65.40
19908;DHT22;10116;53.112;7.356;2023-02-19T05:53:44;24.80;65.50
19908;DHT22;10116;53.112;7.356;2023-02-19T05:58:50;24.80;64.60
19908;DHT22;10116;53.112;7.356;2023-02-19T06:01:18;24.90;64.90
19908;DHT22;10116;53.112;7.356;2023-02-19T06:03:44;24.90;65.50
19908;DHT22;10116;53.112;7.356;2023-02-19T06:06:15;25.00;65.70
19908;DHT22;10116;53.112;7.356;2023-02-19T06:08:41;25.00;66.80
19908;DHT22;10116;53.112;7.356;2023-02-19T06:11:07;25.00;67.50
19908;DHT22;10116;53.112;7.356;2023-02-19T06:13:33;25.00;66.70
19908;DHT22;10116;53.112;7.356;2023-02-19T06:15:58;25.00;66.50
19908;DHT22;10116;53.112;7.356;2023-02-19T06:18:24;25.00;66.40
19908;DHT22;10116;53.112;7.356;2023-02-19T06:20:49;25.00;66.20
19908;DHT22;10116;53.112;7.356;2023-02-19T06:23:15;25.00;66.50
19908;DHT22;10116;53.112;7.356;2023-02-19T06:25:41;25.00;67.50
19908;DHT22;10116;53.112;7.356;2023-02-19T06:28:06;25.00;66.20
19908;DHT22;10116;53.112;7.356;2023-02-19T06:30:34;25.00;67.40
19908;DHT22;10116;53.112;7.356;2023-02-19T06:33:00;25.00;65.20
19908;DHT22;10116;53.112;7.356;2023-02-19T06:35:25;25.00;67.00
19908;DHT22;10116;53.112;7.356;2023-02-19T06:37:51;25.00;64.60
19908;DHT22;10116;53.112;7.356;2023-02-19T06:40:16;25.00;64.90
19908;DHT22;10116;53.112;7.356;2023-02-19T06:42:42;25.00;64.70
19908;DHT22;10116;53.112;7.356;2023-02-19T06:45:08;24.90;63.30
19908;DHT22;10116;53.112;7.356;2023-02-19T06:47:33;24.90;63.40
19908;DHT22;10116;53.112;7.356;2023-02-19T06:49:59;24.90;63.20
19908;DHT22;10116;53.112;7.356;2023-02-19T06:52:26;24.90;63.40
19908;DHT22;10116;53.112;7.356;2023-02-19T06:54:51;24.90;63.40
19908;DHT22;10116;53.112;7.356;2023-02-19T06:57:17;24.90;63.00
19908;DHT22;10116;53.112;7.356;2023-02-19T06:59:43;25.00;62.80
19908;DHT22;10116;53.112;7.356;2023-02-19T07:02:10;25.00;63.70
19908;DHT22;10116;53.112;7.356;2023-02-19T07:04:36;25.00;64.50
19908;DHT22;10116;53.112;7.356;2023-02-19T07:07:02;25.00;65.40
19908;DHT22;10116;53.112;7.356;2023-02-19T07:09:27;25.10;65.30
19908;DHT22;10116;53.112;7.356;2023-02-19T07:11:53;25.10;66.00
19908;DHT22;10116;53.112;7.356;2023-02-19T07:14:19;25.10;65.40
19908;DHT22;10116;53.112;7.356;2023-02-19T07:16:46;25.20;65.80
19908;DHT22;10116;53.112;7.356;2023-02-19T07:19:12;25.20;65.90
19908;DHT22;10116;53.112;7.356;2023-02-19T07:21:40;25.20;66.10
19908;DHT22;10116;53.112;7.356;2023-02-19T07:24:07;25.20;64.80
19908;DHT22;10116;53.112;7.356;2023-02-19T07:26:34;25.20;64.80
19908;DHT22;10116;53.112;7.356;2023-02-19T07:29:00;25.10;66.00
19908;DHT22;10116;53.112;7.356;2023-02-19T07:31:26;25.10;64.20
19908;DHT22;10116;53.112;7.356;2023-02-19T07:33:54;25.10;65.60
19908;DHT22;10116;53.112;7.356;2023-02-19T07:36:21;25.10;63.40
19908;DHT22;10116;53.112;7.356;2023-02-19T07:38:52;25.00;63.40
19908;DHT22;10116;53.112;7.356;2023-02-19T07:41:19;25.00;64.70
19908;DHT22;10116;53.112;7.356;2023-02-19T07:43:45;25.00;62.90
19908;DHT22;10116;53.112;7.356;2023-02-19T07:46:12;25.00;62.00
19908;DHT22;10116;53.112;7.356;2023-02-19T07:48:39;25.00;61.80
19908;DHT22;10116;53.112;7.356;2023-02-19T07:51:06;25.00;61.20
19908;DHT22;10116;53.112;7.356;2023-02-19T07:53:33;25.00;61.40
19908;DHT22;10116;53.112;7.356;2023-02-19T07:56:04;24.90;60.90
19908;DHT22;10116;53.112;7.356;2023-02-19T07:58:30;25.00;63.30
19908;DHT22;10116;53.112;7.356;2023-02-19T08:00:57;25.00;61.90
19908;DHT22;10116;53.112;7.356;2023-02-19T08:03:31;25.00;62.90
19908;DHT22;10116;53.112;7.356;2023-02-19T08:05:56;25.10;63.40
19908;DHT22;10116;53.112;7.356;2023-02-19T08:08:22;25.10;63.10
19908;DHT22;10116;53.112;7.356;2023-02-19T08:11:01;25.10;63.60
19908;DHT22;10116;53.112;7.356;2023-02-19T08:13:50;25.20;63.60
19908;DHT22;10116;53.112;7.356;2023-02-19T08:16:17;25.20;63.70
19908;DHT22;10116;53.112;7.356;2023-02-19T08:18:45;25.20;63.70
19908;DHT22;10116;53.112;7.356;2023-02-19T08:21:11;25.20;63.00
19908;DHT22;10116;53.112;7.356;2023-02-19T08:23:37;25.20;63.50
19908;DHT22;10116;53.112;7.356;2023-02-19T08:26:03;25.10;62.60
19908;DHT22;10116;53.112;7.356;2023-02-19T08:28:29;25.20;63.00
19908;DHT22;10116;53.112;7.356;2023-02-19T08:31:04;25.10;63.50
19908;DHT22;10116;53.112;7.356;2023-02-19T08:33:30;25.20;63.00
19908;DHT22;10116;53.112;7.356;2023-02-19T08:35:56;25.10;61.80
19908;DHT22;10116;53.112;7.356;2023-02-19T08:38:22;25.10;61.90
19908;DHT22;10116;53.112;7.356;2023-02-19T08:40:47;25.10;61.70
19908;DHT22;10116;53.112;7.356;2023-02-19T08:43:14;25.10;60.90
19908;DHT22;10116;53.112;7.356;2023-02-19T08:45:43;25.00;60.40
19908;DHT22;10116;53.112;7.356;2023-02-19T08:48:10;25.00;60.00
19908;DHT22;10116;53.112;7.356;2023-02-19T08:50:36;25.00;60.70
19908;DHT22;10116;53.112;7.356;2023-02-19T08:53:03;25.00;60.00
19908;DHT22;10116;53.112;7.356;2023-02-19T08:55:29;25.00;59.40
19908;DHT22;10116;53.112;7.356;2023-02-19T08:57:55;25.00;58.80
19908;DHT22;10116;53.112;7.356;2023-02-19T09:00:20;25.00;59.50
19908;DHT22;10116;53.112;7.356;2023-02-19T09:02:47;25.00;59.30
19908;DHT22;10116;53.112;7.356;2023-02-19T09:05:13;25.00;60.00
19908;DHT22;10116;53.112;7.356;2023-02-19T09:07:39;25.00;59.70
19908;DHT22;10116;53.112;7.356;2023-02-19T09:10:06;25.00;75.50
19908;DHT22;10116;53.112;7.356;2023-02-19T09:12:32;25.00;59.30
19908;DHT22;10116;53.112;7.356;2023-02-19T09:14:58;25.00;59.70
19908;DHT22;10116;53.112;7.356;2023-02-19T09:17:24;25.00;58.90
19908;DHT22;10116;53.112;7.356;2023-02-19T09:19:50;25.00;59.10
19908;DHT22;10116;53.112;7.356;2023-02-19T09:22:15;25.00;58.70
19908;DHT22;10116;53.112;7.356;2023-02-19T09:24:42;25.00;58.20
19908;DHT22;10116;53.112;7.356;2023-02-19T09:27:08;25.00;58.80
19908;DHT22;10116;53.112;7.356;2023-02-19T09:29:34;25.00;58.30
19908;DHT22;10116;53.112;7.356;2023-02-19T09:32:00;25.00;57.80
19908;DHT22;10116;53.112;7.356;2023-02-19T09:34:27;25.00;57.70
19908;DHT22;10116;53.112;7.356;2023-02-19T09:36:53;25.00;57.00
19908;DHT22;10116;53.112;7.356;2023-02-19T09:39:20;25.00;57.20
19908;DHT22;10116;53.112;7.356;2023-02-19T09:41:48;24.90;71.40
19908;DHT22;10116;53.112;7.356;2023-02-19T09:44:24;24.90;55.80
19908;DHT22;10116;53.112;7.356;2023-02-19T09:46:52;24.90;55.70
19908;DHT22;10116;53.112;7.356;2023-02-19T09:49:28;24.90;56.00
19908;DHT22;10116;53.112;7.356;2023-02-19T09:52:05;24.90;55.70
19908;DHT22;10116;53.112;7.356;2023-02-19T09:54:32;24.90;55.10
19908;DHT22;10116;53.112;7.356;2023-02-19T09:57:00;24.80;55.50
19908;DHT22;10116;53.112;7.356;2023-02-19T09:59:36;24.80;55.10
19908;DHT22;10116;53.112;7.356;2023-02-19T10:02:13;24.80;54.60
19908;DHT22;10116;53.112;7.356;2023-02-19T10:04:41;24.80;54.40
19908;DHT22;10116;53.112;7.356;2023-02-19T10:07:38;24.80;54.40
19908;DHT22;10116;53.112;7.356;2023-02-19T10:12:42;24.80;54.40
19908;DHT22;10116;53.112;7.356;2023-02-19T10:15:31;24.80;53.80
19908;DHT22;10116;53.112;7.356;2023-02-19T10:17:58;24.80;53.60
19908;DHT22;10116;53.112;7.356;2023-02-19T10:20:24;24.80;53.60
19908;DHT22;10116;53.112;7.356;2023-02-19T10:23:04;24.80;53.10
19908;DHT22;10116;53.112;7.356;2023-02-19T10:25:32;24.80;53.20
19908;DHT22;10116;53.112;7.356;2023-02-19T10:27:58;24.70;52.80
19908;DHT22;10116;53.112;7.356;2023-02-19T10:30:30;24.70;65.70
19908;DHT22;10116;53.112;7.356;2023-02-19T10:33:17;24.60;51.70
19908;DHT22;10116;53.112;7.356;2023-02-19T10:35:57;24.60;50.90
19908;DHT22;10116;53.112;7.356;2023-02-19T10:38:27;24.50;50.00
19908;DHT22;10116;53.112;7.356;2023-02-19T10:41:03;24.40;49.40
19908;DHT22;10116;53.112;7.356;2023-02-19T10:43:34;24.40;48.80
19908;DHT22;10116;53.112;7.356;2023-02-19T10:46:04;24.40;48.30
19908;DHT22;10116;53.112;7.356;2023-02-19T10:48:39;24.30;48.00
19908;DHT22;10116;53.112;7.356;2023-02-19T10:51:11;24.30;48.20
19908;DHT22;10116;53.112;7.356;2023-02-19T10:53:45;24.30;48.40
19908;DHT22;10116;53.112;7.356;2023-02-19T10:56:18;24.30;47.60
19908;DHT22;10116;53.112;7.356;2023-02-19T10:58:48;24.30;47.40
19908;DHT22;10116;53.112;7.356;2023-02-19T11:01:20;24.30;47.80
19908;DHT22;10116;53.112;7.356;2023-02-19T11:03:47;24.30;48.60
19908;DHT22;10116;53.112;7.356;2023-02-19T11:06:15;24.30;47.90
19908;DHT22;10116;53.112;7.356;2023-02-19T11:08:51;24.30;47.90
19908;DHT22;10116;53.112;7.356;2023-02-19T11:13:53;24.40;49.80
19908;DHT22;10116;53.112;7.356;2023-02-19T11:16:20;24.40;51.00
19908;DHT22;10116;53.112;7.356;2023-02-19T11:18:53;24.50;51.00
19908;DHT22;10116;53.112;7.356;2023-02-19T11:21:26;24.50;52.60
19908;DHT22;10116;53.112;7.356;2023-02-19T11:23:54;24.50;52.60
19908;DHT22;10116;53.112;7.356;2023-02-19T11:26:23;24.60;52.10
19908;DHT22;10116;53.112;7.356;2023-02-19T11:29:00;24.60;52.00
19908;DHT22;10116;53.112;7.356;2023-02-19T11:31:31;24.70;52.30
19908;DHT22;10116;53.112;7.356;2023-02-19T11:34:24;24.60;52.60
19908;DHT22;10116;53.112;7.356;2023-02-19T11:37:08;24.60;53.20
19908;DHT22;10116;53.112;7.356;2023-02-19T11:39:34;24.60;52.80
19908;DHT22;10116;53.112;7.356;2023-02-19T11:52:37;24.60;54.90
19908;DHT22;10116;53.112;7.356;2023-02-19T11:55:22;24.50;54.40
19908;DHT22;10116;53.112;7.356;2023-02-19T11:57:56;24.50;55.10
19908;DHT22;10116;53.112;7.356;2023-02-19T12:00:29;24.50;55.50
19908;DHT22;10116;53.112;7.356;2023-02-19T12:03:10;24.40;55.40
19908;DHT22;10116;53.112;7.356;2023-02-19T12:06:18;24.40;55.90
19908;DHT22;10116;53.112;7.356;2023-02-19T12:11:14;24.60;58.80
19908;DHT22;10116;53.112;7.356;2023-02-19T12:21:59;24.70;64.10
19908;DHT22;10116;53.112;7.356;2023-02-19T12:27:25;24.70;67.40
19908;DHT22;10116;53.112;7.356;2023-02-19T12:32:48;24.80;68.60
19908;DHT22;10116;53.112;7.356;2023-02-19T12:35:41;24.70;69.70
19908;DHT22;10116;53.112;7.356;2023-02-19T12:38:20;24.70;69.80
19908;DHT22;10116;53.112;7.356;2023-02-19T12:43:50;24.70;70.80
19908;DHT22;10116;53.112;7.356;2023-02-19T12:46:31;24.70;71.50
19908;DHT22;10116;53.112;7.356;2023-02-19T12:49:14;24.70;72.10
19908;DHT22;10116;53.112;7.356;2023-02-19T12:51:44;24.70;73.60
19908;DHT22;10116;53.112;7.356;2023-02-19T12:54:22;24.60;73.20
19908;DHT22;10116;53.112;7.356;2023-02-19T12:59:32;24.60;73.70
19908;DHT22;10116;53.112;7.356;2023-02-19T13:02:19;24.50;73.90
19908;DHT22;10116;53.112;7.356;2023-02-19T13:05:14;24.60;75.20
19908;DHT22;10116;53.112;7.356;2023-02-19T13:08:02;24.60;76.40
19908;DHT22;10116;53.112;7.356;2023-02-19T13:13:00;24.70;78.00
19908;DHT22;10116;53.112;7.356;2023-02-19T13:15:43;24.70;79.70
19908;DHT22;10116;53.112;7.356;2023-02-19T13:18:23;24.70;80.70
19908;DHT22;10116;53.112;7.356;2023-02-19T13:20:51;24.80;82.50
19908;DHT22;10116;53.112;7.356;2023-02-19T13:23:31;24.70;81.20
19908;DHT22;10116;53.112;7.356;2023-02-19T13:32:14;24.70;81.40
19908;DHT22;10116;53.112;7.356;2023-02-19T13:37:36;24.70;82.10
19908;DHT22;10116;53.112;7.356;2023-02-19T13:40:05;24.70;82.20
19908;DHT22;10116;53.112;7.356;2023-02-19T13:42:41;24.70;82.90
19908;DHT22;10116;53.112;7.356;2023-02-19T13:45:22;24.60;83.30
19908;DHT22;10116;53.112;7.356;2023-02-19T13:50:26;24.50;81.20
19908;DHT22;10116;53.112;7.356;2023-02-19T13:52:57;24.50;93.10
19908;DHT22;10116;53.112;7.356;2023-02-19T14:01:02;24.40;79.10
19908;DHT22;10116;53.112;7.356;2023-02-19T14:03:39;24.40;78.70
19908;DHT22;10116;53.112;7.356;2023-02-19T14:06:06;24.30;78.10
19908;DHT22;10116;53.112;7.356;2023-02-19T14:08:57;24.30;77.80
19908;DHT22;10116;53.112;7.356;2023-02-19T14:19:59;24.20;77.30
19908;DHT22;10116;53.112;7.356;2023-02-19T14:25:32;24.30;80.30
19908;DHT22;10116;53.112;7.356;2023-02-19T14:33:53;24.40;82.50
19908;DHT22;10116;53.112;7.356;2023-02-19T14:41:35;24.50;83.60
19908;DHT22;10116;53.112;7.356;2023-02-19T14:44:02;24.50;83.20
19908;DHT22;10116;53.112;7.356;2023-02-19T14:46:31;24.50;83.40
19908;DHT22;10116;53.112;7.356;2023-02-19T14:49:06;24.50;84.40
19908;DHT22;10116;53.112;7.356;2023-02-19T14:51:40;24.50;84.60
19908;DHT22;10116;53.112;7.356;2023-02-19T14:54:20;24.50;84.40
19908;DHT22;10116;53.112;7.356;2023-02-19T14:56:52;24.50;84.50
19908;DHT22;10116;53.112;7.356;2023-02-19T15:01:44;24.50;84.00
19908;DHT22;10116;53.112;7.356;2023-02-19T15:04:21;24.40;83.80
19908;DHT22;10116;53.112;7.356;2023-02-19T15:06:47;24.50;83.90
19908;DHT22;10116;53.112;7.356;2023-02-19T15:09:13;24.40;84.20
19908;DHT22;10116;53.112;7.356;2023-02-19T15:11:41;24.40;84.90
19908;DHT22;10116;53.112;7.356;2023-02-19T15:14:19;24.40;84.20
19908;DHT22;10116;53.112;7.356;2023-02-19T15:16:46;24.40;86.10
19908;DHT22;10116;53.112;7.356;2023-02-19T15:19:13;24.50;85.90
19908;DHT22;10116;53.112;7.356;2023-02-19T15:21:45;24.40;85.50
19908;DHT22;10116;53.112;7.356;2023-02-19T15:24:13;24.40;85.70
19908;DHT22;10116;53.112;7.356;2023-02-19T15:26:41;24.50;85.80
19908;DHT22;10116;53.112;7.356;2023-02-19T15:29:16;24.50;86.60
19908;DHT22;10116;53.112;7.356;2023-02-19T15:34:15;24.60;87.90
19908;DHT22;10116;53.112;7.356;2023-02-19T15:36:41;24.60;89.00
19908;DHT22;10116;53.112;7.356;2023-02-19T15:39:18;24.60;89.00
19908;DHT22;10116;53.112;7.356;2023-02-19T15:41:54;24.60;90.10
19908;DHT22;10116;53.112;7.356;2023-02-19T15:47:19;24.70;90.20
19908;DHT22;10116;53.112;7.356;2023-02-19T15:49:53;24.70;90.50
19908;DHT22;10116;53.112;7.356;2023-02-19T15:52:32;24.70;90.60
19908;DHT22;10116;53.112;7.356;2023-02-19T15:57:35;24.70;91.70
19908;DHT22;10116;53.112;7.356;2023-02-19T16:00:12;24.70;91.30
19908;DHT22;10116;53.112;7.356;2023-02-19T16:02:39;24.70;91.60
19908;DHT22;10116;53.112;7.356;2023-02-19T16:05:22;24.70;91.70
19908;DHT22;10116;53.112;7.356;2023-02-19T16:10:36;24.70;92.30
19908;DHT22;10116;53.112;7.356;2023-02-19T16:13:04;24.70;91.60
19908;DHT22;10116;53.112;7.356;2023-02-19T16:15:32;24.60;91.50
19908;DHT22;10116;53.112;7.356;2023-02-19T16:17:59;24.60;91.50
19908;DHT22;10116;53.112;7.356;2023-02-19T16:20:32;24.60;91.60
19908;DHT22;10116;53.112;7.356;2023-02-19T16:23:09;24.60;91.40
19908;DHT22;10116;53.112;7.356;2023-02-19T16:25:38;24.60;91.60
19908;DHT22;10116;53.112;7.356;2023-02-19T16:28:12;24.60;92.40
19908;DHT22;10116;53.112;7.356;2023-02-19T16:30:39;24.70;92.60
19908;DHT22;10116;53.112;7.356;2023-02-19T16:33:30;24.80;92.90
19908;DHT22;10116;53.112;7.356;2023-02-19T16:35:57;24.60;91.20
19908;DHT22;10116;53.112;7.356;2023-02-19T16:38:39;24.60;90.90
19908;DHT22;10116;53.112;7.356;2023-02-19T16:41:10;24.60;91.00
19908;DHT22;10116;53.112;7.356;2023-02-19T16:43:39;24.70;91.50
19908;DHT22;10116;53.112;7.356;2023-02-19T16:46:08;24.70;91.50
19908;DHT22;10116;53.112;7.356;2023-02-19T16:48:35;24.70;91.60
19908;DHT22;10116;53.112;7.356;2023-02-19T16:51:00;24.70;91.50
19908;DHT22;10116;53.112;7.356;2023-02-19T16:53:27;24.80;91.50
19908;DHT22;10116;53.112;7.356;2023-02-19T16:55:54;24.70;91.70
19908;DHT22;10116;53.112;7.356;2023-02-19T16:58:19;24.80;92.00
19908;DHT22;10116;53.112;7.356;2023-02-19T17:00:46;24.80;91.80
19908;DHT22;10116;53.112;7.356;2023-02-19T17:03:14;24.80;91.60
19908;DHT22;10116;53.112;7.356;2023-02-19T17:05:41;24.80;92.00
19908;DHT22;10116;53.112;7.356;2023-02-19T17:08:27;24.80;91.70
19908;DHT22;10116;53.112;7.356;2023-02-19T17:10:56;24.80;91.40
19908;DHT22;10116;53.112;7.356;2023-02-19T17:13:21;24.70;91.80
19908;DHT22;10116;53.112;7.356;2023-02-19T17:15:47;24.70;91.50
19908;DHT22;10116;53.112;7.356;2023-02-19T17:18:12;24.70;91.60
19908;DHT22;10116;53.112;7.356;2023-02-19T17:20:39;24.80;91.90
19908;DHT22;10116;53.112;7.356;2023-02-19T17:23:04;24.80;92.30
19908;DHT22;10116;53.112;7.356;2023-02-19T17:25:30;24.80;92.10
19908;DHT22;10116;53.112;7.356;2023-02-19T17:27:56;24.80;91.90
19908;DHT22;10116;53.112;7.356;2023-02-19T17:30:30;24.80;91.80
19908;DHT22;10116;53.112;7.356;2023-02-19T17:32:56;24.80;91.60
19908;DHT22;10116;53.112;7.356;2023-02-19T17:35:21;24.80;91.70
19908;DHT22;10116;53.112;7.356;2023-02-19T17:37:47;24.80;91.80
19908;DHT22;10116;53.112;7.356;2023-02-19T17:40:31;24.80;92.10
19908;DHT22;10116;53.112;7.356;2023-02-19T17:42:56;24.80;92.20
19908;DHT22;10116;53.112;7.356;2023-02-19T17:45:22;24.80;92.60
19908;DHT22;10116;53.112;7.356;2023-02-19T17:47:51;24.90;92.50
19908;DHT22;10116;53.112;7.356;2023-02-19T17:50:20;24.90;93.00
19908;DHT22;10116;53.112;7.356;2023-02-19T17:52:46;24.90;93.60
19908;DHT22;10116;53.112;7.356;2023-02-19T17:55:13;24.90;93.60